Time;durP1;ratioP1;P1;durP2;ratioP2;P2;SDS_P1;SDS_P2;PMS_P1;PMS_P2;Temp;Humidity;BMP_temperature;BMP_pressure;BME280_temperature;BME280_humidity;BME280_pressure;Samples;Min_cycle;Max_cycle;Signal;HPM_P1;HPM_P2
2022/08/15 00:01:51;;;;;;;27.48;21.33;;;16.40;99.90;;;;;;5036358;28;20049;-76
2022/08/15 00:04:19;;;;;;;28.92;22.08;;;16.40;99.90;;;;;;5036189;28;20044;-76
2022/08/15 00:06:47;;;;;;;24.92;22.27;;;16.40;99.90;;;;;;5054250;28;20045;-76
2022/08/15 00:09:19;;;;;;;28.30;22.02;;;16.40;99.90;;;;;;5049992;28;20052;-76
2022/08/15 00:11:49;;;;;;;30.15;23.23;;;16.30;99.90;;;;;;5057156;28;20035;-75
2022/08/15 00:14:20;;;;;;;34.25;22.73;;;16.40;99.90;;;;;;5055067;28;20041;-76
2022/08/15 00:16:48;;;;;;;23.73;21.17;;;16.30;99.90;;;;;;5036742;28;20048;-76
2022/08/15 00:19:19;;;;;;;26.45;22.92;;;16.30;99.90;;;;;;5054235;28;20045;-75
2022/08/15 00:21:49;;;;;;;28.35;22.00;;;16.30;99.90;;;;;;5037645;28;20087;-76
2022/08/15 00:24:21;;;;;;;30.52;20.90;;;16.20;99.90;;;;;;5055511;28;20041;-76
2022/08/15 00:26:49;;;;;;;29.58;21.75;;;16.10;99.90;;;;;;5056699;28;20095;-75
2022/08/15 00:29:17;;;;;;;30.85;21.95;;;16.10;99.90;;;;;;5038218;28;20076;-76
2022/08/15 00:31:45;;;;;;;28.50;22.23;;;16.20;99.90;;;;;;5055348;28;20041;-76
2022/08/15 00:34:16;;;;;;;27.02;21.52;;;16.10;99.90;;;;;;5037408;28;20045;-76
2022/08/15 00:36:46;;;;;;;25.23;19.73;;;16.20;99.90;;;;;;5039171;28;20057;-76
2022/08/15 00:39:15;;;;;;;24.60;21.42;;;16.10;99.90;;;;;;5037961;28;20045;-76
2022/08/15 00:41:44;;;;;;;24.05;21.55;;;16.10;99.90;;;;;;5057557;28;20040;-76
2022/08/15 00:44:15;;;;;;;26.75;21.52;;;16.10;99.90;;;;;;5037883;28;20060;-76
2022/08/15 00:46:46;;;;;;;25.95;21.40;;;16.10;99.90;;;;;;5056923;28;20045;-75
2022/08/15 00:49:14;;;;;;;29.80;22.73;;;16.00;99.90;;;;;;5056816;28;20041;-77
2022/08/15 00:51:47;;;;;;;28.40;22.13;;;16.00;99.90;;;;;;5053064;28;20072;-76
2022/08/15 00:54:19;;;;;;;33.58;23.23;;;16.00;99.90;;;;;;5035401;28;20501;-77
2022/08/15 00:56:52;;;;;;;29.58;22.35;;;15.90;99.90;;;;;;5035471;28;20516;-76
2022/08/15 00:59:24;;;;;;;24.85;21.83;;;15.90;99.90;;;;;;5053535;28;20053;-76
2022/08/15 01:01:53;;;;;;;24.38;21.02;;;15.90;99.90;;;;;;5053323;28;20474;-76
2022/08/15 01:04:20;;;;;;;26.83;21.98;;;15.80;99.90;;;;;;5053254;28;20091;-76
2022/08/15 01:06:51;;;;;;;30.23;22.80;;;15.80;99.90;;;;;;5058562;28;20040;-76
2022/08/15 01:09:20;;;;;;;27.52;23.35;;;15.80;99.90;;;;;;5045457;28;20049;-75
2022/08/15 01:11:53;;;;;;;30.73;23.63;;;15.70;99.90;;;;;;5061495;28;20044;-76
2022/08/15 01:14:22;;;;;;;25.35;22.40;;;15.70;99.90;;;;;;5044965;28;20045;-75
2022/08/15 01:16:50;;;;;;;25.85;23.08;;;15.60;99.90;;;;;;5065082;28;20052;-76
2022/08/15 01:19:23;;;;;;;26.63;23.00;;;15.60;99.90;;;;;;5054030;28;20037;-76
2022/08/15 01:22:23;;;;;;;26.27;23.48;;;15.60;99.90;;;;;;5056113;28;20040;-76
2022/08/15 01:24:59;;;;;;;25.60;22.75;;;15.60;99.90;;;;;;5032980;28;20057;-76
2022/08/15 01:27:34;;;;;;;28.98;22.58;;;15.60;99.90;;;;;;5035307;28;20103;-76
2022/08/15 01:30:04;;;;;;;28.23;21.58;;;15.60;99.90;;;;;;5034961;28;20415;-75
2022/08/15 01:32:32;;;;;;;24.73;20.45;;;15.60;99.90;;;;;;5035596;28;20048;-76
2022/08/15 01:35:02;;;;;;;28.35;21.92;;;15.60;99.90;;;;;;5035299;28;20041;-76
2022/08/15 01:37:30;;;;;;;28.77;22.27;;;15.60;99.90;;;;;;5035247;28;20488;-77
2022/08/15 01:40:04;;;;;;;30.85;22.70;;;15.60;99.90;;;;;;5034986;28;20056;-76
2022/08/15 01:42:37;;;;;;;48.58;39.55;;;15.60;99.90;;;;;;5035100;28;20061;-77
2022/08/15 01:45:09;;;;;;;35.83;27.75;;;15.50;99.90;;;;;;5035373;28;20044;-76
2022/08/15 01:47:42;;;;;;;30.20;23.15;;;15.60;99.90;;;;;;5038742;28;20041;-76
2022/08/15 01:50:12;;;;;;;29.02;23.70;;;15.60;99.90;;;;;;5039038;28;20423;-77
2022/08/15 01:52:45;;;;;;;26.08;23.15;;;15.60;99.90;;;;;;5038705;28;20057;-76
2022/08/15 01:55:15;;;;;;;23.90;21.35;;;15.60;99.90;;;;;;5057162;28;20033;-75
2022/08/15 01:57:44;;;;;;;24.63;21.40;;;15.70;99.90;;;;;;5047220;28;20049;-76
2022/08/15 02:00:13;;;;;;;26.98;22.55;;;15.60;99.90;;;;;;5053008;28;20558;-76
2022/08/15 02:02:41;;;;;;;29.30;22.83;;;15.60;99.90;;;;;;5073136;28;20049;-76
2022/08/15 02:05:09;;;;;;;26.73;22.35;;;15.50;99.90;;;;;;5050872;28;20071;-75
2022/08/15 02:07:38;;;;;;;22.88;20.27;;;15.50;99.90;;;;;;5050400;28;20052;-77
2022/08/15 02:10:07;;;;;;;27.58;22.83;;;15.50;99.90;;;;;;5051993;28;20048;-75
2022/08/15 02:12:40;;;;;;;27.55;22.73;;;15.50;99.90;;;;;;5052669;28;20037;-76
2022/08/15 02:15:13;;;;;;;27.35;22.58;;;15.40;99.90;;;;;;5058970;28;20104;-76
2022/08/15 02:17:42;;;;;;;26.33;21.00;;;15.40;99.90;;;;;;5070935;28;20376;-75
2022/08/15 02:20:11;;;;;;;23.88;21.30;;;15.30;99.90;;;;;;5076309;28;20054;-77
2022/08/15 02:22:38;;;;;;;28.58;22.45;;;15.30;99.90;;;;;;5057703;28;20072;-76
2022/08/15 02:25:08;;;;;;;26.00;22.13;;;15.20;99.90;;;;;;5058040;28;20061;-76
2022/08/15 02:27:39;;;;;;;25.70;22.90;;;15.20;99.90;;;;;;5057914;28;20045;-76
2022/08/15 02:30:10;;;;;;;24.65;22.05;;;15.20;99.90;;;;;;5043982;28;20135;-76
2022/08/15 02:32:40;;;;;;;30.92;23.80;;;15.20;99.90;;;;;;5037701;28;20128;-77
2022/08/15 02:35:12;;;;;;;27.15;22.10;;;15.10;99.90;;;;;;5038259;28;20052;-76
2022/08/15 02:37:41;;;;;;;25.25;22.33;;;15.10;99.90;;;;;;5038388;28;20416;-76
2022/08/15 02:40:13;;;;;;;28.05;22.25;;;15.10;99.90;;;;;;5056047;28;20036;-76
2022/08/15 02:42:42;;;;;;;26.23;22.60;;;15.10;99.90;;;;;;5062705;28;20037;-75
2022/08/15 02:45:12;;;;;;;27.98;22.23;;;15.10;99.90;;;;;;5037960;28;20091;-75
2022/08/15 02:47:43;;;;;;;29.13;20.70;;;15.10;99.90;;;;;;5041746;28;20072;-77
2022/08/15 02:50:13;;;;;;;23.88;21.30;;;15.10;99.90;;;;;;5058493;28;20052;-75
2022/08/15 02:52:41;;;;;;;27.08;22.17;;;15.10;99.90;;;;;;5060838;28;20060;-76
2022/08/15 02:55:12;;;;;;;25.02;20.95;;;15.10;99.90;;;;;;5037467;28;20515;-76
2022/08/15 02:57:41;;;;;;;30.98;23.00;;;15.10;99.90;;;;;;5054979;28;20095;-74
2022/08/15 03:00:14;;;;;;;25.50;21.65;;;15.10;99.90;;;;;;5039119;28;20508;-76
2022/08/15 03:02:54;;;;;;;29.65;22.17;;;15.10;99.90;;;;;;5038752;28;20080;-76
2022/08/15 03:05:26;;;;;;;32.88;22.92;;;15.10;99.90;;;;;;5037580;28;20033;-76
2022/08/15 03:07:53;;;;;;;27.35;23.50;;;15.10;99.90;;;;;;5037422;28;20098;-77
2022/08/15 03:10:21;;;;;;;26.08;23.38;;;15.10;99.90;;;;;;5037578;28;20045;-77
2022/08/15 03:12:58;;;;;;;26.55;22.85;;;15.00;99.90;;;;;;5055553;28;20128;-77
2022/08/15 03:15:32;;;;;;;25.33;21.50;;;15.00;99.90;;;;;;5055550;28;20114;-76
2022/08/15 03:18:01;;;;;;;24.90;22.23;;;15.00;99.90;;;;;;5037674;28;20057;-76
2022/08/15 03:20:28;;;;;;;26.75;22.75;;;14.90;99.90;;;;;;5037248;28;20103;-75
2022/08/15 03:22:56;;;;;;;25.65;22.77;;;14.90;99.90;;;;;;5037384;28;20518;-75
2022/08/15 03:25:27;;;;;;;26.10;22.38;;;14.90;99.90;;;;;;5037105;28;20037;-76
2022/08/15 03:27:58;;;;;;;29.60;23.52;;;14.90;99.90;;;;;;5036833;28;20094;-76
2022/08/15 03:30:25;;;;;;;29.45;24.02;;;14.90;99.90;;;;;;5036914;28;20052;-76
2022/08/15 03:32:57;;;;;;;30.67;24.15;;;14.90;99.90;;;;;;5036457;28;20116;-76
2022/08/15 03:35:31;;;;;;;28.60;23.70;;;14.90;99.90;;;;;;5036799;28;20496;-76
2022/08/15 03:38:02;;;;;;;30.67;23.27;;;14.90;99.90;;;;;;5036704;28;20049;-76
2022/08/15 03:40:32;;;;;;;31.63;23.92;;;14.90;99.90;;;;;;5036947;28;20095;-76
2022/08/15 03:43:04;;;;;;;33.05;23.38;;;14.90;99.90;;;;;;5036205;28;20058;-75
2022/08/15 03:45:32;;;;;;;28.60;24.05;;;14.90;99.90;;;;;;5036732;28;20033;-76
2022/08/15 03:48:01;;;;;;;32.25;26.17;;;14.80;99.90;;;;;;5036827;28;20056;-77
2022/08/15 03:50:31;;;;;;;35.78;27.23;;;14.80;99.90;;;;;;5036976;28;20453;-76
2022/08/15 03:53:05;;;;;;;35.78;27.17;;;14.70;99.90;;;;;;5066321;23;20044;-77
2022/08/15 03:55:36;;;;;;;32.65;26.98;;;14.80;99.90;;;;;;5051332;28;20044;-79
2022/08/15 03:58:06;;;;;;;33.45;27.05;;;14.80;99.90;;;;;;5060145;28;20059;-78
2022/08/15 04:00:41;;;;;;;31.50;25.48;;;14.80;99.90;;;;;;5064896;28;20044;-77
2022/08/15 04:03:10;;;;;;;30.63;25.50;;;14.80;99.90;;;;;;5062173;28;20060;-78
2022/08/15 04:05:39;;;;;;;29.27;24.80;;;14.80;99.90;;;;;;5077905;28;20040;-77
2022/08/15 04:08:09;;;;;;;38.17;27.23;;;14.90;99.90;;;;;;5059448;28;20048;-77
2022/08/15 04:10:37;;;;;;;33.55;26.25;;;14.90;99.90;;;;;;5079480;28;20561;-79
2022/08/15 04:13:10;;;;;;;37.42;26.58;;;14.90;99.90;;;;;;5060188;28;20048;-78
2022/08/15 04:15:38;;;;;;;33.72;26.75;;;14.90;99.90;;;;;;5059146;28;20045;-79
2022/08/15 04:18:06;;;;;;;30.80;26.48;;;14.90;99.90;;;;;;5078041;28;20119;-79
2022/08/15 04:20:34;;;;;;;31.80;24.83;;;14.90;99.90;;;;;;5061365;28;20044;-79
2022/08/15 04:23:08;;;;;;;34.42;25.00;;;14.90;99.90;;;;;;5061064;28;20599;-79
2022/08/15 04:25:39;;;;;;;28.02;23.40;;;15.00;99.90;;;;;;5058245;28;20052;-79
2022/08/15 04:28:09;;;;;;;27.80;21.05;;;15.00;99.90;;;;;;5076888;28;20044;-79
2022/08/15 04:30:40;;;;;;;30.60;22.17;;;15.00;99.90;;;;;;5076562;28;20078;-77
2022/08/15 04:33:10;;;;;;;23.80;21.30;;;15.20;99.90;;;;;;5058129;28;20075;-77
2022/08/15 04:35:40;;;;;;;24.38;20.90;;;15.30;99.90;;;;;;5057639;28;20036;-77
2022/08/15 04:38:08;;;;;;;24.70;22.00;;;15.50;99.90;;;;;;5058698;28;20530;-79
2022/08/15 04:40:36;;;;;;;24.08;21.48;;;15.50;99.90;;;;;;5061547;28;20047;-78
2022/08/15 04:43:05;;;;;;;29.00;20.77;;;15.60;99.90;;;;;;5059118;28;20086;-78
2022/08/15 04:45:35;;;;;;;22.80;19.08;;;15.80;99.90;;;;;;5058754;28;20131;-78
2022/08/15 04:48:03;;;;;;;23.70;17.90;;;16.10;99.90;;;;;;5060965;28;20071;-78
2022/08/15 04:50:35;;;;;;;22.58;17.88;;;16.20;99.90;;;;;;5063617;28;20071;-77
2022/08/15 04:53:08;;;;;;;19.30;17.30;;;16.50;99.90;;;;;;5076798;28;20057;-78
2022/08/15 04:55:41;;;;;;;26.63;17.63;;;16.80;99.90;;;;;;5075889;28;20086;-77
2022/08/15 04:58:10;;;;;;;17.77;15.50;;;17.00;99.90;;;;;;5055957;28;20040;-76
2022/08/15 05:00:41;;;;;;;19.85;15.65;;;17.10;99.90;;;;;;5073462;28;20051;-78
2022/08/15 05:03:20;;;;;;;18.35;14.32;;;17.30;99.90;;;;;;5073763;28;20071;-77
2022/08/15 05:05:54;;;;;;;18.60;14.27;;;17.50;99.90;;;;;;5055921;28;20044;-77
2022/08/15 05:08:23;;;;;;;16.02;13.68;;;17.50;99.90;;;;;;5056151;28;20135;-76
2022/08/15 05:10:56;;;;;;;19.25;15.55;;;17.60;99.90;;;;;;5055634;28;20087;-75
2022/08/15 05:13:27;;;;;;;18.00;15.82;;;17.70;99.90;;;;;;5055363;28;20471;-77
2022/08/15 05:15:57;;;;;;;16.98;15.15;;;17.80;99.90;;;;;;5056073;28;20040;-78
2022/08/15 05:18:29;;;;;;;15.85;14.13;;;17.90;99.90;;;;;;5055917;28;20507;-79
2022/08/15 05:20:58;;;;;;;17.45;13.35;;;17.90;99.90;;;;;;5075007;28;20383;-77
2022/08/15 05:23:27;;;;;;;17.67;14.38;;;18.10;99.90;;;;;;5059326;28;20041;-78
2022/08/15 05:25:57;;;;;;;21.05;14.15;;;18.30;99.90;;;;;;5060956;28;20491;-78
2022/08/15 05:28:25;;;;;;;17.52;14.40;;;18.50;99.90;;;;;;5078645;28;20485;-77
2022/08/15 05:30:57;;;;;;;18.20;15.23;;;18.80;99.90;;;;;;5059802;28;20053;-78
2022/08/15 05:33:28;;;;;;;19.90;15.52;;;19.00;99.90;;;;;;5059765;28;20477;-77
2022/08/15 05:36:02;;;;;;;17.77;15.65;;;19.40;99.90;;;;;;5059017;28;20049;-77
2022/08/15 05:38:34;;;;;;;18.60;15.63;;;19.70;99.90;;;;;;5061767;28;20053;-77
2022/08/15 05:41:22;;;;;;;16.48;14.77;;;20.10;99.90;;;;;;5059383;28;20044;-78
2022/08/15 05:43:58;;;;;;;18.77;14.98;;;20.30;99.90;;;;;;5058574;28;20076;-77
2022/08/15 05:46:46;;;;;;;18.48;13.57;;;20.60;99.90;;;;;;5059111;28;20059;-76
2022/08/15 05:49:28;;;;;;;96.95;23.80;;;21.00;99.90;;;;;;5058913;28;20044;-78
2022/08/15 05:52:12;;;;;;;32.75;15.50;;;21.30;99.90;;;;;;5058990;28;20072;-78
2022/08/15 05:54:54;;;;;;;29.45;16.10;;;21.60;99.90;;;;;;5056398;28;20048;-77
2022/08/15 05:57:29;;;;;;;15.80;13.18;;;21.80;99.90;;;;;;5055693;28;20055;-78
2022/08/15 06:00:07;;;;;;;17.08;14.85;;;21.90;99.90;;;;;;5038663;28;20045;-78
2022/08/15 06:02:46;;;;;;;17.17;13.05;;;21.90;99.90;;;;;;5056198;28;20091;-75
2022/08/15 06:05:18;;;;;;;18.98;13.98;;;22.10;99.90;;;;;;5038398;28;20049;-77
2022/08/15 06:07:50;;;;;;;18.88;13.88;;;22.30;99.90;;;;;;5038371;28;20045;-77
2022/08/15 06:10:26;;;;;;;17.88;15.00;;;22.20;99.90;;;;;;5038512;28;20091;-77
2022/08/15 06:13:03;;;;;;;22.58;14.10;;;21.90;99.90;;;;;;5038890;28;20059;-77
2022/08/15 06:15:38;;;;;;;18.77;16.30;;;22.00;99.90;;;;;;5038597;28;20047;-78
2022/08/15 06:18:10;;;;;;;18.23;13.98;;;22.10;99.90;;;;;;5043192;28;20056;-78
2022/08/15 06:20:47;;;;;;;15.60;13.80;;;22.00;99.90;;;;;;5058752;28;20076;-77
2022/08/15 06:23:26;;;;;;;17.65;14.63;;;21.80;99.90;;;;;;5075924;28;20051;-78
2022/08/15 06:26:14;;;;;;;17.65;13.90;;;21.80;99.90;;;;;;5075668;28;20041;-76
2022/08/15 06:28:58;;;;;;;19.00;14.15;;;22.00;99.90;;;;;;5057807;28;20048;-74
2022/08/15 06:31:31;;;;;;;18.93;14.30;;;22.10;99.90;;;;;;5057803;28;20048;-76
2022/08/15 06:34:14;;;;;;;17.63;14.13;;;22.40;99.90;;;;;;5057639;28;20301;-78
2022/08/15 06:36:49;;;;;;;17.20;14.60;;;22.60;99.90;;;;;;5057881;28;20557;-77
2022/08/15 06:39:24;;;;;;;16.17;14.30;;;22.70;99.90;;;;;;5074972;28;20052;-76
2022/08/15 06:42:04;;;;;;;16.40;13.90;;;22.60;99.90;;;;;;5058049;28;20044;-76
2022/08/15 06:44:49;;;;;;;17.75;13.88;;;23.00;99.90;;;;;;5057654;28;20136;-77
2022/08/15 06:47:18;;;;;;;16.23;13.85;;;23.20;99.90;;;;;;5057457;28;20125;-77
2022/08/15 06:49:50;;;;;;;16.65;14.82;;;23.60;99.90;;;;;;5057519;28;20051;-78
2022/08/15 06:52:19;;;;;;;18.40;13.75;;;23.80;99.90;;;;;;5057689;28;20045;-77
2022/08/15 06:54:48;;;;;;;15.82;14.23;;;24.10;99.90;;;;;;5058341;28;20078;-77
2022/08/15 06:57:34;;;;;;;15.82;12.95;;;24.40;99.90;;;;;;5058140;28;20044;-77
2022/08/15 07:00:08;;;;;;;;;;;24.40;99.90;;;;;;5057420;28;20055;-77
2022/08/15 07:03:03;;;;;;;19.73;14.15;;;24.70;99.90;;;;;;5056876;28;19943;-76
2022/08/15 07:05:42;;;;;;;15.65;14.02;;;24.80;99.90;;;;;;5057484;28;20049;-77
2022/08/15 07:08:16;;;;;;;16.52;12.05;;;24.90;99.90;;;;;;5057241;28;20098;-77
2022/08/15 07:10:48;;;;;;;14.23;11.95;;;25.00;99.90;;;;;;5057759;28;20478;-77
2022/08/15 07:13:20;;;;;;;13.15;11.65;;;25.10;99.90;;;;;;5057578;28;20041;-76
2022/08/15 07:15:53;;;;;;;13.20;11.82;;;25.00;99.90;;;;;;5057387;28;20064;-78
2022/08/15 07:18:30;;;;;;;15.90;13.73;;;24.90;99.90;;;;;;5057438;28;20139;-76
2022/08/15 07:21:05;;;;;;;16.23;11.80;;;25.10;99.90;;;;;;5057644;28;20139;-78
2022/08/15 07:23:35;;;;;;;14.57;12.00;;;25.40;99.90;;;;;;5056647;28;20066;-77
2022/08/15 07:26:10;;;;;;;13.02;11.63;;;25.70;99.90;;;;;;5057941;28;20399;-76
2022/08/15 07:28:44;;;;;;;14.18;12.10;;;25.90;99.90;;;;;;5057670;28;20525;-77
2022/08/15 07:31:14;;;;;;;12.88;11.57;;;26.00;99.90;;;;;;5073807;28;20045;-76
2022/08/15 07:33:48;;;;;;;17.02;12.82;;;26.30;99.90;;;;;;5056642;28;20071;-77
2022/08/15 07:36:20;;;;;;;17.95;15.98;;;26.40;99.90;;;;;;5075235;28;20040;-77
2022/08/15 07:38:48;;;;;;;18.65;14.77;;;26.50;99.90;;;;;;5058068;28;20048;-77
2022/08/15 07:41:23;;;;;;;16.60;13.98;;;26.60;99.90;;;;;;5059067;28;20105;-77
2022/08/15 07:43:53;;;;;;;18.02;13.52;;;26.60;99.90;;;;;;5074117;28;20457;-76
2022/08/15 07:46:34;;;;;;;17.33;14.45;;;26.50;99.90;;;;;;5057443;28;20040;-78
2022/08/15 07:49:07;;;;;;;15.10;13.63;;;26.70;99.90;;;;;;5057281;28;20064;-78
2022/08/15 07:51:43;;;;;;;14.07;12.57;;;27.00;99.90;;;;;;5056830;28;20040;-76
2022/08/15 07:54:25;;;;;;;20.02;16.52;;;27.20;99.90;;;;;;5057249;28;20076;-76
2022/08/15 07:56:58;;;;;;;19.73;14.85;;;27.30;99.90;;;;;;5038147;28;20079;-76
2022/08/15 07:59:30;;;;;;;16.77;12.82;;;27.50;99.90;;;;;;5037628;28;20049;-78
2022/08/15 08:02:26;;;;;;;17.92;14.10;;;27.60;99.90;;;;;;5053743;28;20056;-77
2022/08/15 08:04:56;;;;;;;18.45;12.80;;;27.60;99.90;;;;;;5036348;28;20384;-76
2022/08/15 08:07:33;;;;;;;15.80;13.07;;;27.40;99.90;;;;;;5036341;28;20106;-77
2022/08/15 08:10:08;;;;;;;14.15;12.68;;;27.10;99.90;;;;;;5036163;28;20071;-78
2022/08/15 08:12:48;;;;;;;16.48;14.48;;;27.00;99.90;;;;;;5035845;28;20072;-77
2022/08/15 08:15:20;;;;;;;19.80;13.63;;;27.30;99.90;;;;;;5036118;28;20119;-76
2022/08/15 08:17:52;;;;;;;15.00;12.85;;;27.50;99.90;;;;;;5045582;28;20139;-77
2022/08/15 08:20:25;;;;;;;14.05;12.75;;;27.60;99.90;;;;;;5056228;28;20052;-77
2022/08/15 08:22:58;;;;;;;14.57;11.90;;;27.60;99.90;;;;;;5074150;28;20131;-76
2022/08/15 08:25:29;;;;;;;12.40;11.13;;;27.30;99.90;;;;;;5055992;28;20036;-77
2022/08/15 08:28:13;;;;;;;12.27;10.32;;;27.10;99.90;;;;;;5056352;28;20067;-77
2022/08/15 08:30:47;;;;;;;;;;;27.10;99.90;;;;;;5056678;28;20079;-76
2022/08/15 08:33:22;;;;;;;11.13;9.95;;;26.90;99.90;;;;;;5074869;28;19924;-76
2022/08/15 08:35:55;;;;;;;14.15;9.57;;;26.80;99.90;;;;;;5056245;28;20130;-77
2022/08/15 08:38:39;;;;;;;12.10;10.70;;;27.10;99.90;;;;;;5074599;28;20493;-78
2022/08/15 08:44:14;;;;;;;11.65;9.88;;;27.40;99.90;;;;;;5070035;28;20109;-76
2022/08/15 08:47:17;;;;;;;12.13;10.90;;;27.30;99.90;;;;;;5074453;28;20045;-77
2022/08/15 08:49:54;;;;;;;11.60;10.40;;;27.50;99.90;;;;;;5073973;28;20045;-77
2022/08/15 08:52:32;;;;;;;15.90;13.35;;;27.60;99.90;;;;;;5074043;28;20052;-76
2022/08/15 08:55:05;;;;;;;12.63;11.18;;;27.60;99.90;;;;;;5069477;28;20044;-77
2022/08/15 08:57:38;;;;;;;13.25;10.82;;;27.80;99.90;;;;;;5054041;28;20492;-78
2022/08/15 09:00:12;;;;;;;12.13;10.10;;;28.00;99.90;;;;;;5053653;28;20045;-77
2022/08/15 09:02:46;;;;;;;10.88;9.88;;;28.30;99.90;;;;;;5053064;28;20071;-77
2022/08/15 09:05:26;;;;;;;11.65;9.60;;;28.40;98.90;;;;;;5053634;28;20454;-77
2022/08/15 09:07:56;;;;;;;11.05;9.95;;;28.20;97.50;;;;;;5053629;28;20056;-78
2022/08/15 09:10:32;;;;;;;11.18;10.05;;;28.50;97.60;;;;;;5035957;28;20099;-77
2022/08/15 09:15:49;;;;;;;12.90;11.50;;;28.50;97.60;;;;;;5053576;28;20524;-76
2022/08/15 09:18:22;;;;;;;12.02;10.52;;;28.90;97.40;;;;;;5066531;28;20109;-77
2022/08/15 09:20:49;;;;;;;12.05;10.82;;;28.90;96.60;;;;;;5073774;28;20118;-78
2022/08/15 09:23:17;;;;;;;10.13;9.10;;;28.70;95.40;;;;;;5073899;28;20051;-77
2022/08/15 09:25:56;;;;;;;14.18;12.68;;;28.70;95.30;;;;;;5074240;28;20033;-77
2022/08/15 09:28:32;;;;;;;16.08;13.57;;;28.70;95.10;;;;;;5074504;28;20036;-77
2022/08/15 09:31:06;;;;;;;11.98;10.18;;;28.80;95.20;;;;;;5054693;28;20049;-76
2022/08/15 09:33:50;;;;;;;11.95;10.15;;;29.00;94.50;;;;;;5035284;28;20075;-76
2022/08/15 09:36:51;;;;;;;10.05;9.05;;;28.90;93.90;;;;;;5053518;28;20037;-79
2022/08/15 09:39:40;;;;;;;9.68;7.90;;;29.00;93.30;;;;;;5053779;28;20132;-77
2022/08/15 09:42:22;;;;;;;19.25;16.80;;;29.20;92.40;;;;;;5057217;28;20041;-77
2022/08/15 09:45:08;;;;;;;10.18;9.18;;;29.30;92.00;;;;;;5055424;28;20045;-78
2022/08/15 09:47:59;;;;;;;10.02;7.20;;;29.40;91.30;;;;;;5053738;28;20037;-78
2022/08/15 09:50:50;;;;;;;8.23;6.45;;;29.40;88.90;;;;;;5053947;28;20037;-76
2022/08/15 09:53:37;;;;;;;9.70;8.05;;;29.20;86.00;;;;;;5073697;23;20131;-76
2022/08/15 09:56:11;;;;;;;10.25;8.43;;;29.10;85.40;;;;;;5037146;28;20055;-77
2022/08/15 09:58:53;;;;;;;9.55;8.00;;;29.20;84.70;;;;;;5055637;28;20102;-77
2022/08/15 10:01:23;;;;;;;7.22;6.53;;;29.30;84.70;;;;;;5038669;28;20151;-76
2022/08/15 10:03:55;;;;;;;16.83;14.73;;;29.30;82.50;;;;;;5055731;28;20472;-76
2022/08/15 10:06:24;;;;;;;9.45;8.48;;;29.30;82.40;;;;;;5054910;28;20479;-76
2022/08/15 10:09:14;;;;;;;7.57;6.57;;;29.30;81.90;;;;;;5039612;28;20059;-75
2022/08/15 10:12:31;;;;;;;6.78;6.00;;;29.30;81.00;;;;;;5058421;28;20056;-77
2022/08/15 10:15:22;;;;;;;9.40;6.20;;;29.50;80.80;;;;;;4968497;28;20074;-75
2022/08/15 10:17:51;;;;;;;7.60;5.97;;;29.30;79.80;;;;;;5030678;28;20099;-76
2022/08/15 10:21:01;;;;;;;7.35;6.53;;;29.20;80.50;;;;;;5037145;28;20045;-77
2022/08/15 10:23:43;;;;;;;8.55;7.07;;;29.10;82.00;;;;;;5038143;28;20045;-76
2022/08/15 10:26:27;;;;;;;11.40;10.10;;;29.30;82.80;;;;;;5039467;28;20037;-77
2022/08/15 10:29:00;;;;;;;9.35;7.22;;;29.60;83.10;;;;;;5037068;28;20061;-76
2022/08/15 10:31:37;;;;;;;8.85;6.60;;;29.70;80.70;;;;;;5037897;28;20095;-76
2022/08/15 10:34:06;;;;;;;8.60;7.68;;;29.80;79.50;;;;;;5037835;28;20503;-75
2022/08/15 10:36:35;;;;;;;12.00;8.57;;;29.90;79.80;;;;;;5038077;28;20038;-76
2022/08/15 10:39:22;;;;;;;9.55;8.55;;;30.00;79.40;;;;;;5037318;28;20073;-76
2022/08/15 10:42:17;;;;;;;8.65;7.20;;;30.10;77.70;;;;;;5038370;28;20052;-76
2022/08/15 10:44:53;;;;;;;10.90;7.57;;;30.20;77.00;;;;;;5037406;28;20073;-76
2022/08/15 10:47:27;;;;;;;;;;;30.20;75.60;;;;;;5038309;28;20041;-76
2022/08/15 10:50:08;;;;;;;9.05;6.43;;;30.30;73.60;;;;;;5020048;28;19921;-76
2022/08/15 10:52:48;;;;;;;12.13;7.65;;;30.10;72.40;;;;;;5038462;28;20384;-75
2022/08/15 10:55:26;;;;;;;8.55;6.72;;;30.10;72.90;;;;;;5044465;28;20395;-77
2022/08/15 10:57:58;;;;;;;8.95;7.20;;;30.10;72.60;;;;;;5059504;28;20041;-75
2022/08/15 11:00:38;;;;;;;9.00;6.90;;;30.10;72.70;;;;;;5046531;28;20152;-78
2022/08/15 11:03:11;;;;;;;10.75;7.10;;;30.10;72.80;;;;;;5039050;28;20128;-78
2022/08/15 11:05:39;;;;;;;12.13;7.07;;;30.20;72.30;;;;;;5056347;28;20049;-76
2022/08/15 11:08:17;;;;;;;9.80;6.22;;;30.10;70.00;;;;;;5056733;28;20071;-76
2022/08/15 11:10:45;;;;;;;13.52;8.40;;;30.00;70.10;;;;;;5057072;28;20071;-77
2022/08/15 11:13:16;;;;;;;11.00;7.38;;;30.10;70.20;;;;;;5038103;28;20044;-76
2022/08/15 11:15:54;;;;;;;7.32;6.22;;;30.20;70.30;;;;;;5057227;28;20507;-78
2022/08/15 11:18:29;;;;;;;7.65;6.85;;;30.20;68.90;;;;;;5025320;28;20054;-78
2022/08/15 11:21:04;;;;;;;7.20;5.30;;;30.40;68.90;;;;;;5020651;28;20046;-78
2022/08/15 11:23:36;;;;;;;7.25;6.07;;;30.40;67.60;;;;;;5020721;28;20045;-77
2022/08/15 11:26:04;;;;;;;9.05;6.40;;;30.40;67.90;;;;;;5037954;28;20099;-76
2022/08/15 11:28:32;;;;;;;12.63;9.85;;;30.30;67.70;;;;;;5037490;28;20104;-77
2022/08/15 11:31:02;;;;;;;10.75;5.90;;;30.20;67.20;;;;;;5020170;28;20060;-74
2022/08/15 11:33:41;;;;;;;10.90;7.30;;;30.10;67.20;;;;;;5036731;28;20045;-76
2022/08/15 11:36:12;;;;;;;9.93;8.23;;;29.90;67.00;;;;;;5036330;28;20071;-77
2022/08/15 11:38:45;;;;;;;8.25;6.65;;;30.00;67.20;;;;;;5018959;28;20230;-76
2022/08/15 11:41:22;;;;;;;10.13;6.22;;;30.10;65.70;;;;;;5051078;28;20045;-76
2022/08/15 11:43:52;;;;;;;7.22;6.32;;;30.20;64.80;;;;;;5033139;28;20073;-76
2022/08/15 11:46:20;;;;;;;8.20;6.50;;;30.30;64.40;;;;;;5033404;28;20049;-77
2022/08/15 11:49:04;;;;;;;9.50;4.97;;;30.30;62.90;;;;;;5052062;28;20040;-77
2022/08/15 11:51:37;;;;;;;13.10;10.30;;;30.30;63.20;;;;;;5025181;28;20050;-76
2022/08/15 11:54:24;;;;;;;7.45;5.70;;;30.50;62.80;;;;;;5035680;28;20064;-77
2022/08/15 11:56:55;;;;;;;11.25;8.32;;;30.60;61.00;;;;;;5017757;28;20100;-75
2022/08/15 11:59:25;;;;;;;9.15;7.60;;;30.60;61.50;;;;;;5000298;28;20116;-76
2022/08/15 12:02:07;;;;;;;10.00;6.13;;;30.50;63.00;;;;;;5017554;28;20072;-75
2022/08/15 12:04:39;;;;;;;12.10;7.70;;;30.50;61.50;;;;;;5017486;28;20559;-75
2022/08/15 12:07:16;;;;;;;9.90;8.15;;;30.50;61.50;;;;;;5017143;28;20037;-76
2022/08/15 12:09:56;;;;;;;12.70;8.52;;;30.60;60.70;;;;;;5020178;28;20768;-77
2022/08/15 12:12:40;;;;;;;12.48;8.82;;;30.60;61.50;;;;;;5007885;28;20050;-74
2022/08/15 12:15:13;;;;;;;10.52;7.80;;;30.60;62.90;;;;;;5028430;28;20046;-76
2022/08/15 12:17:48;;;;;;;11.07;8.88;;;30.60;62.90;;;;;;5031910;28;20069;-77
2022/08/15 12:20:34;;;;;;;17.08;10.43;;;30.60;63.30;;;;;;5009317;28;20052;-76
2022/08/15 12:23:21;;;;;;;12.75;8.45;;;30.50;63.30;;;;;;5022233;28;20049;-76
2022/08/15 12:25:51;;;;;;;13.25;9.90;;;30.50;63.40;;;;;;5017001;28;20050;-77
2022/08/15 12:28:19;;;;;;;15.98;12.57;;;30.50;63.70;;;;;;5015190;28;20125;-77
2022/08/15 12:30:47;;;;;;;12.93;9.55;;;30.50;63.80;;;;;;5034359;28;20053;-76
2022/08/15 12:33:15;;;;;;;8.90;7.70;;;30.60;63.80;;;;;;5035472;28;20049;-77
2022/08/15 12:35:44;;;;;;;10.65;9.23;;;30.60;65.30;;;;;;5017981;28;20049;-76
2022/08/15 12:38:12;;;;;;;9.90;8.75;;;30.60;65.20;;;;;;5035181;28;20045;-77
2022/08/15 12:40:39;;;;;;;12.25;9.07;;;30.60;65.30;;;;;;5018312;28;20045;-77
2022/08/15 12:43:07;;;;;;;11.45;7.55;;;30.60;65.60;;;;;;5034543;28;20045;-75
2022/08/15 12:45:35;;;;;;;11.85;8.05;;;30.50;65.10;;;;;;5035307;28;20038;-76
2022/08/15 12:48:02;;;;;;;10.20;8.20;;;30.50;66.40;;;;;;5035170;28;20038;-76
2022/08/15 12:50:30;;;;;;;10.18;7.95;;;30.50;66.40;;;;;;5035183;28;20076;-77
2022/08/15 12:53:00;;;;;;;10.82;7.18;;;30.60;65.90;;;;;;5035267;28;20061;-77
2022/08/15 12:55:30;;;;;;;11.85;7.45;;;30.60;65.50;;;;;;5044469;28;20037;-76
2022/08/15 12:57:57;;;;;;;7.78;6.80;;;30.60;65.80;;;;;;5037445;28;20136;-77
2022/08/15 13:00:26;;;;;;;7.75;6.25;;;30.70;65.40;;;;;;5054887;28;20052;-76
2022/08/15 13:02:53;;;;;;;10.55;7.05;;;30.60;65.50;;;;;;5055291;28;20072;-77
2022/08/15 13:05:30;;;;;;;14.52;7.75;;;30.60;65.70;;;;;;5054834;28;20037;-76
2022/08/15 13:07:59;;;;;;;7.38;6.50;;;30.70;65.80;;;;;;5054806;28;20041;-77
2022/08/15 13:10:27;;;;;;;10.63;7.53;;;30.60;65.10;;;;;;5054965;28;20052;-77